createdAt,value
2023-01-12T00:01:42.917Z,7.52
2023-01-12T00:04:12.305Z,7.45
2023-01-12T00:06:40.395Z,7.47
2023-01-12T00:09:07.681Z,7.42
2023-01-12T00:11:35.336Z,7.46
2023-01-12T00:14:02.508Z,7.34
2023-01-12T00:16:35.155Z,7.47
2023-01-12T00:19:12.947Z,7.48
2023-01-12T00:22:02.289Z,7.48
2023-01-12T00:24:44.225Z,7.39
2023-01-12T00:27:16.407Z,7.47
2023-01-12T00:29:43.445Z,7.42
2023-01-12T00:32:15.341Z,7.08
2023-01-12T00:34:42.340Z,7.22
2023-01-12T00:37:10.070Z,7.30
2023-01-12T00:39:40.400Z,7.37
2023-01-12T00:42:26.237Z,7.37
2023-01-12T00:45:11.568Z,7.39
2023-01-12T00:47:38.238Z,7.34
2023-01-12T00:50:05.169Z,7.39
2023-01-12T00:52:32.233Z,7.42
2023-01-12T00:54:59.812Z,7.34
2023-01-12T00:57:26.689Z,7.40
2023-01-12T00:59:58.332Z,7.37
2023-01-12T01:02:26.508Z,7.33
2023-01-12T01:04:53.195Z,7.07
2023-01-12T01:07:21.839Z,6.79
2023-01-12T01:09:48.743Z,7.06
2023-01-12T01:12:15.396Z,7.12
2023-01-12T01:14:42.078Z,7.21
2023-01-12T01:17:08.872Z,7.20
2023-01-12T01:19:35.552Z,7.21
2023-01-12T01:22:05.326Z,7.23
2023-01-12T01:24:31.970Z,7.22
2023-01-12T01:26:58.651Z,7.25
2023-01-12T01:29:25.254Z,7.17
2023-01-12T01:31:55.574Z,7.31
2023-01-12T01:34:23.989Z,7.32
2023-01-12T01:36:50.739Z,7.34
2023-01-12T01:39:17.359Z,7.38
2023-01-12T01:41:44.005Z,7.41
2023-01-12T01:44:29.020Z,7.35
2023-01-12T01:46:59.240Z,7.34
2023-01-12T01:49:39.121Z,7.33
2023-01-12T01:52:12.958Z,7.43
2023-01-12T01:54:56.519Z,7.52
2023-01-12T01:57:31.367Z,7.55
2023-01-12T01:59:58.667Z,7.36
2023-01-12T02:02:25.845Z,7.45
2023-01-12T02:04:53.727Z,7.51
2023-01-12T02:07:20.460Z,7.64
2023-01-12T02:09:47.131Z,7.51
2023-01-12T02:12:32.596Z,7.59
2023-01-12T02:15:18.044Z,7.71
2023-01-12T02:17:53.716Z,7.56
2023-01-12T02:20:40.690Z,7.65
2023-01-12T02:23:15.086Z,7.69
2023-01-12T02:26:30.132Z,7.74
2023-01-12T02:29:26.758Z,7.62
2023-01-12T02:32:02.471Z,7.89
2023-01-12T02:34:32.203Z,7.81
2023-01-12T02:37:32.880Z,7.73
2023-01-12T02:40:07.046Z,7.63
2023-01-12T02:43:12.087Z,7.69
2023-01-12T02:45:48.166Z,7.73
2023-01-12T02:48:26.306Z,7.77
2023-01-12T02:50:58.948Z,7.74
2023-01-12T02:53:43.384Z,7.67
2023-01-12T02:56:12.200Z,7.55
2023-01-12T02:58:41.959Z,7.70
2023-01-12T03:01:09.797Z,7.71
2023-01-12T03:03:42.849Z,7.86
2023-01-12T03:06:10.072Z,7.80
2023-01-12T03:08:38.457Z,7.73
2023-01-12T03:11:18.796Z,7.73
2023-01-12T03:13:49.786Z,7.77
2023-01-12T03:16:20.435Z,7.80
2023-01-12T03:18:55.907Z,7.87
2023-01-12T03:21:29.836Z,7.85
2023-01-12T03:24:05.935Z,7.77
2023-01-12T03:26:33.512Z,7.77
2023-01-12T03:29:28.854Z,7.79
2023-01-12T03:31:56.524Z,7.82
2023-01-12T03:34:23.853Z,7.69
2023-01-12T03:37:13.857Z,7.71
2023-01-12T03:39:58.719Z,7.90
2023-01-12T03:42:57.955Z,7.83
2023-01-12T03:45:30.574Z,7.95
2023-01-12T03:48:19.720Z,7.85
2023-01-12T03:50:51.390Z,7.78
2023-01-12T03:53:21.382Z,7.86
2023-01-12T03:55:50.539Z,8.00
2023-01-12T03:58:17.566Z,7.70
2023-01-12T04:00:50.512Z,7.76
2023-01-12T04:03:17.585Z,7.95
2023-01-12T04:05:45.479Z,7.83
2023-01-12T04:08:14.684Z,7.78
2023-01-12T04:10:41.741Z,7.93
2023-01-12T04:13:08.507Z,8.03
2023-01-12T04:15:38.131Z,8.07
2023-01-12T04:18:05.451Z,8.03
2023-01-12T04:20:33.048Z,8.04
2023-01-12T04:22:59.947Z,7.98
2023-01-12T04:25:27.185Z,8.10
2023-01-12T04:28:02.404Z,8.15
2023-01-12T04:30:30.893Z,8.10
2023-01-12T04:32:58.140Z,8.17
2023-01-12T04:35:25.819Z,8.23
2023-01-12T04:37:52.830Z,8.15
2023-01-12T04:40:20.331Z,8.17
2023-01-12T04:43:01.573Z,8.12
2023-01-12T04:45:30.388Z,8.22
2023-01-12T04:48:01.144Z,8.18
2023-01-12T04:50:27.844Z,8.15
2023-01-12T04:52:54.486Z,8.25
2023-01-12T04:55:21.229Z,8.39
2023-01-12T04:57:47.904Z,8.47
2023-01-12T05:00:14.720Z,8.38
2023-01-12T05:02:41.437Z,8.53
2023-01-12T05:05:09.247Z,8.27
2023-01-12T05:07:36.021Z,8.47
2023-01-12T05:10:21.210Z,8.55
2023-01-12T05:12:48.294Z,8.32
2023-01-12T05:15:14.939Z,8.57
2023-01-12T05:17:41.576Z,8.40
2023-01-12T05:20:09.085Z,8.55
2023-01-12T05:22:35.786Z,8.64
2023-01-12T05:25:02.490Z,8.68
2023-01-12T05:27:29.169Z,8.59
2023-01-12T05:29:57.361Z,8.62
2023-01-12T05:32:24.125Z,8.61
2023-01-12T05:34:50.848Z,8.68
2023-01-12T05:37:17.542Z,8.81
2023-01-12T05:39:44.230Z,8.68
2023-01-12T05:42:29.755Z,8.59
2023-01-12T05:44:56.398Z,8.66
2023-01-12T05:47:22.991Z,8.67
2023-01-12T05:49:49.620Z,8.80
2023-01-12T05:52:16.284Z,8.79
2023-01-12T05:54:43.000Z,8.85
2023-01-12T05:57:09.615Z,8.85
2023-01-12T05:59:36.359Z,8.81
2023-01-12T06:02:03.065Z,8.94
2023-01-12T06:04:29.760Z,8.88
2023-01-12T06:06:56.454Z,8.78
2023-01-12T06:09:23.101Z,8.93
2023-01-12T06:12:08.383Z,8.78
2023-01-12T06:14:35.745Z,8.88
2023-01-12T06:17:02.377Z,8.96
2023-01-12T06:19:29.022Z,8.99
2023-01-12T06:21:59.446Z,8.90
2023-01-12T06:24:28.329Z,9.04
2023-01-12T06:26:55.336Z,8.93
2023-01-12T06:29:22.084Z,8.91
2023-01-12T06:31:48.790Z,8.92
2023-01-12T06:34:15.574Z,8.94
2023-01-12T06:36:42.300Z,9.04
2023-01-12T06:39:09.155Z,9.04
2023-01-12T06:41:54.512Z,9.07
2023-01-12T06:44:21.247Z,8.91
2023-01-12T06:46:48.101Z,8.91
2023-01-12T06:49:16.702Z,8.88
2023-01-12T06:51:43.725Z,8.86
2023-01-12T06:54:10.401Z,8.79
2023-01-12T06:56:37.031Z,8.99
2023-01-12T06:59:03.687Z,8.83
2023-01-12T07:01:30.511Z,8.73
2023-01-12T07:03:57.175Z,8.94
2023-01-12T07:06:24.937Z,8.98
2023-01-12T07:08:51.554Z,8.83
2023-01-12T07:11:18.531Z,8.91
2023-01-12T07:13:45.316Z,8.96
2023-01-12T07:16:12.103Z,8.94
2023-01-12T07:18:38.855Z,8.96
2023-01-12T07:21:06.670Z,9.00
2023-01-12T07:23:35.228Z,8.88
2023-01-12T07:26:02.042Z,9.00
2023-01-12T07:28:31.348Z,8.83
2023-01-12T07:31:02.470Z,9.04
2023-01-12T07:33:29.523Z,9.19
2023-01-12T07:36:00.361Z,9.21
2023-01-12T07:38:30.387Z,9.21
2023-01-12T07:41:01.493Z,9.46
2023-01-12T07:43:28.368Z,9.22
2023-01-12T07:45:59.215Z,9.36
2023-01-12T07:48:27.684Z,9.41
2023-01-12T07:50:54.561Z,9.50
2023-01-12T07:53:21.576Z,9.25
2023-01-12T07:55:48.435Z,9.33
2023-01-12T07:58:15.214Z,9.41
2023-01-12T08:00:41.896Z,9.25
2023-01-12T08:03:10.521Z,9.50
2023-01-12T08:05:38.059Z,9.47
2023-01-12T08:08:05.939Z,9.38
2023-01-12T08:10:32.855Z,9.55
2023-01-12T08:12:59.607Z,9.52
2023-01-12T08:15:27.094Z,9.64
2023-01-12T08:18:00.425Z,9.72
2023-01-12T08:20:30.442Z,9.60
2023-01-12T08:23:01.562Z,9.49
2023-01-12T08:25:33.583Z,9.43
2023-01-12T08:28:03.692Z,9.56
2023-01-12T08:30:30.454Z,9.66
2023-01-12T08:32:58.556Z,9.71
2023-01-12T08:35:27.191Z,9.76
2023-01-12T08:37:55.186Z,9.70
2023-01-12T08:40:22.636Z,9.85
2023-01-12T08:42:50.187Z,9.65
2023-01-12T08:45:16.906Z,9.89
2023-01-12T08:47:45.333Z,9.84
2023-01-12T08:50:15.385Z,9.84
2023-01-12T08:52:42.115Z,10.06
2023-01-12T08:55:11.269Z,10.00
2023-01-12T08:57:38.487Z,9.92
2023-01-12T09:00:06.695Z,9.98
2023-01-12T09:02:33.614Z,9.91
2023-01-12T09:05:00.329Z,9.98
2023-01-12T09:07:27.085Z,10.01
2023-01-12T09:09:53.701Z,10.02
2023-01-12T09:12:20.365Z,10.08
2023-01-12T09:14:47.026Z,9.98
2023-01-12T09:17:13.807Z,10.18
2023-01-12T09:19:40.497Z,10.16
2023-01-12T09:22:08.219Z,10.22
2023-01-12T09:24:35.889Z,10.19
2023-01-12T09:27:03.174Z,10.05
2023-01-12T09:29:29.935Z,10.08
2023-01-12T09:31:56.911Z,10.18
2023-01-12T09:34:23.635Z,10.34
2023-01-12T09:36:52.464Z,10.48
2023-01-12T09:39:27.358Z,10.46
2023-01-12T09:42:13.152Z,10.29
2023-01-12T09:45:00.934Z,10.31
2023-01-12T09:47:36.786Z,10.30
2023-01-12T09:50:16.544Z,10.35
2023-01-12T09:52:49.210Z,10.51
2023-01-12T09:55:24.794Z,10.47
2023-01-12T09:58:07.033Z,10.57
2023-01-12T10:00:33.855Z,10.59
2023-01-12T10:03:06.488Z,10.74
2023-01-12T10:05:46.301Z,10.85
2023-01-12T10:08:30.413Z,10.99
2023-01-12T10:11:06.281Z,11.02
2023-01-12T10:14:01.056Z,10.97
2023-01-12T10:16:36.835Z,10.83
2023-01-12T10:19:11.285Z,10.87
2023-01-12T10:21:37.978Z,10.90
2023-01-12T10:24:13.075Z,11.03
2023-01-12T10:26:44.206Z,10.87
2023-01-12T10:29:11.529Z,11.08
2023-01-12T10:31:38.242Z,11.03
2023-01-12T10:34:11.075Z,11.00
2023-01-12T10:36:43.760Z,10.88
2023-01-12T10:39:25.779Z,10.79
2023-01-12T10:42:35.200Z,10.85
2023-01-12T10:45:16.686Z,10.92
2023-01-12T10:47:45.118Z,10.74
2023-01-12T10:50:28.126Z,10.84
2023-01-12T10:52:58.625Z,10.94
2023-01-12T10:55:30.243Z,10.91
2023-01-12T10:57:57.166Z,10.90
2023-01-12T11:00:26.415Z,10.65
2023-01-12T11:02:53.406Z,10.61
2023-01-12T11:05:38.660Z,10.68
2023-01-12T11:08:26.831Z,10.64
2023-01-12T11:10:53.687Z,10.46
2023-01-12T11:13:36.572Z,10.49
2023-01-12T11:16:16.518Z,10.47
2023-01-12T11:18:57.061Z,10.48
2023-01-12T11:21:26.144Z,10.42
2023-01-12T11:24:05.934Z,10.37
2023-01-12T11:26:45.589Z,10.48
2023-01-12T11:29:26.153Z,10.43
2023-01-12T11:31:56.071Z,10.48
2023-01-12T11:34:25.513Z,10.42
2023-01-12T11:36:54.529Z,10.41
2023-01-12T11:39:23.856Z,10.30
2023-01-12T11:42:17.822Z,10.30
2023-01-12T11:45:06.313Z,10.23
2023-01-12T11:48:00.109Z,10.14
2023-01-12T11:50:32.822Z,10.23
2023-01-12T11:52:59.646Z,10.38
2023-01-12T11:55:52.061Z,10.40
2023-01-12T11:58:46.905Z,10.43
2023-01-12T12:01:29.913Z,10.37
2023-01-12T12:04:01.852Z,10.40
2023-01-12T12:06:43.851Z,10.53
2023-01-12T12:09:25.797Z,10.40
2023-01-12T12:11:58.481Z,10.60
2023-01-12T12:14:57.232Z,10.49
2023-01-12T12:17:41.904Z,10.61
2023-01-12T12:20:21.788Z,10.68
2023-01-12T12:23:42.247Z,10.61
2023-01-12T12:26:36.344Z,10.68
2023-01-12T12:29:24.845Z,10.86
2023-01-12T12:32:02.666Z,10.70
2023-01-12T12:34:58.515Z,10.70
2023-01-12T12:37:40.511Z,10.67
2023-01-12T12:40:18.798Z,10.85
2023-01-12T12:43:16.548Z,10.88
2023-01-12T12:45:56.627Z,10.75
2023-01-12T12:48:41.942Z,10.84
2023-01-12T12:51:09.351Z,10.79
2023-01-12T12:53:44.418Z,10.88
2023-01-12T12:56:14.403Z,11.02
2023-01-12T12:58:49.031Z,11.08
2023-01-12T13:01:25.016Z,11.03
2023-01-12T13:03:53.007Z,10.98
2023-01-12T13:06:27.208Z,11.00
2023-01-12T13:08:56.128Z,11.13
2023-01-12T13:12:00.611Z,11.22
2023-01-12T13:14:41.490Z,11.11
2023-01-12T13:17:20.521Z,11.21
2023-01-12T13:20:24.097Z,11.15
2023-01-12T13:22:52.289Z,11.07
2023-01-12T13:25:24.927Z,11.15
2023-01-12T13:28:06.839Z,11.24
2023-01-12T13:30:35.006Z,11.14
2023-01-12T13:33:01.538Z,11.16
2023-01-12T13:35:31.252Z,11.14
2023-01-12T13:37:59.364Z,11.12
2023-01-12T13:40:29.161Z,11.17
2023-01-12T13:43:16.068Z,11.10
2023-01-12T13:46:05.406Z,11.21
2023-01-12T13:48:34.595Z,11.29
2023-01-12T13:51:13.337Z,11.30
2023-01-12T13:53:39.949Z,11.31
2023-01-12T13:56:07.725Z,11.39
2023-01-12T13:58:42.653Z,11.30
2023-01-12T14:01:29.395Z,11.26
2023-01-12T14:04:03.305Z,11.33
2023-01-12T14:06:48.550Z,11.42
2023-01-12T14:09:32.972Z,11.40
2023-01-12T14:12:14.203Z,11.37
2023-01-12T14:15:24.009Z,11.37
2023-01-12T14:18:20.920Z,11.26
2023-01-12T14:20:50.021Z,11.34
2023-01-12T14:23:23.243Z,11.29
2023-01-12T14:26:13.246Z,11.25
2023-01-12T14:28:45.092Z,11.34
2023-01-12T14:31:29.075Z,11.37
2023-01-12T14:33:58.168Z,11.35
2023-01-12T14:36:28.682Z,11.42
2023-01-12T14:38:57.486Z,11.43
2023-01-12T14:41:46.716Z,11.43
2023-01-12T14:44:52.268Z,11.46
2023-01-12T14:47:27.241Z,11.34
2023-01-12T14:49:54.005Z,11.38
2023-01-12T14:52:26.504Z,11.35
2023-01-12T14:54:53.141Z,11.38
2023-01-12T14:57:24.122Z,11.42
2023-01-12T14:59:52.288Z,11.43
2023-01-12T15:02:37.428Z,11.63
2023-01-12T15:05:05.562Z,11.37
2023-01-12T15:07:38.314Z,11.42
2023-01-12T15:10:11.024Z,11.41
2023-01-12T15:12:48.836Z,11.39
2023-01-12T15:15:52.553Z,11.52
2023-01-12T15:18:37.999Z,11.44
2023-01-12T15:21:23.374Z,11.38
2023-01-12T15:24:08.576Z,11.45
2023-01-12T15:26:35.215Z,11.52
2023-01-12T15:29:01.825Z,11.44
2023-01-12T15:31:32.831Z,11.41
2023-01-12T15:34:00.855Z,11.43
2023-01-12T15:36:27.763Z,11.41
2023-01-12T15:38:54.518Z,11.52
2023-01-12T15:41:45.008Z,11.48
2023-01-12T15:44:15.770Z,11.45
2023-01-12T15:46:43.038Z,11.29
2023-01-12T15:49:11.415Z,11.19
2023-01-12T15:51:38.132Z,11.41
2023-01-12T15:54:05.591Z,11.51
2023-01-12T15:56:32.306Z,11.55
2023-01-12T15:58:59.080Z,11.45
2023-01-12T16:01:32.387Z,11.49
2023-01-12T16:04:35.657Z,11.63
2023-01-12T16:06:46.003Z,11.51
2023-01-12T16:09:12.726Z,11.58
2023-01-12T16:11:39.734Z,11.65
2023-01-12T16:14:06.449Z,11.52
2023-01-12T16:16:33.118Z,11.51
2023-01-12T16:19:01.375Z,11.54
2023-01-12T16:21:28.478Z,11.67
2023-01-12T16:23:57.933Z,11.61
2023-01-12T16:26:26.079Z,11.66
2023-01-12T16:28:54.068Z,11.52
2023-01-12T16:31:22.208Z,11.62
2023-01-12T16:33:49.034Z,11.71
2023-01-12T16:36:16.083Z,11.74
2023-01-12T16:38:42.867Z,11.75
2023-01-12T16:41:22.345Z,11.77
2023-01-12T16:43:49.488Z,11.79
2023-01-12T16:46:16.867Z,11.70
2023-01-12T16:48:43.969Z,11.75
2023-01-12T16:51:12.343Z,11.73
2023-01-12T16:53:41.353Z,11.75
2023-01-12T16:56:11.245Z,11.89
2023-01-12T16:58:38.175Z,11.76
2023-01-12T17:01:13.047Z,11.81
2023-01-12T17:03:41.679Z,11.94
2023-01-12T17:06:13.892Z,11.82
2023-01-12T17:08:41.743Z,11.73
2023-01-12T17:11:13.747Z,11.97
2023-01-12T17:13:42.104Z,11.80
2023-01-12T17:16:12.447Z,11.86
2023-01-12T17:18:39.587Z,12.02
2023-01-12T17:21:12.559Z,11.77
2023-01-12T17:23:41.122Z,11.77
2023-01-12T17:26:10.762Z,11.88
2023-01-12T17:28:38.890Z,12.05
2023-01-12T17:31:10.693Z,11.91
2023-01-12T17:33:38.538Z,11.90
2023-01-12T17:36:06.597Z,11.92
2023-01-12T17:38:34.112Z,12.05
2023-01-12T17:41:00.797Z,11.94
2023-01-12T17:43:27.535Z,12.05
2023-01-12T17:45:54.288Z,12.04
2023-01-12T17:48:21.127Z,12.00
2023-01-12T17:50:48.101Z,12.04
2023-01-12T17:53:17.363Z,12.03
2023-01-12T17:55:48.814Z,12.10
2023-01-12T17:58:18.677Z,11.97
2023-01-12T18:00:45.385Z,12.20
2023-01-12T18:03:12.086Z,12.05
2023-01-12T18:05:39.673Z,11.98
2023-01-12T18:08:07.571Z,12.07
2023-01-12T18:10:34.325Z,12.03
2023-01-12T18:13:00.942Z,12.11
2023-01-12T18:15:29.722Z,12.06
2023-01-12T18:17:56.582Z,11.84
2023-01-12T18:20:23.448Z,12.01
2023-01-12T18:22:50.653Z,12.09
2023-01-12T18:25:18.435Z,12.01
2023-01-12T18:27:45.626Z,12.05
2023-01-12T18:30:12.540Z,11.99
2023-01-12T18:32:39.772Z,12.14
2023-01-12T18:35:06.628Z,12.13
2023-01-12T18:37:33.465Z,12.09
2023-01-12T18:40:01.147Z,12.02
2023-01-12T18:42:49.594Z,12.04
2023-01-12T18:45:20.577Z,12.06
2023-01-12T18:48:06.786Z,12.19
2023-01-12T18:50:51.974Z,12.18
2023-01-12T18:53:24.607Z,12.07
2023-01-12T18:55:55.239Z,12.13
2023-01-12T18:58:28.894Z,12.22
2023-01-12T19:01:13.552Z,12.20
2023-01-12T19:03:41.488Z,12.21
2023-01-12T19:06:12.897Z,12.10
2023-01-12T19:08:58.196Z,12.18
2023-01-12T19:11:25.709Z,12.18
2023-01-12T19:14:11.088Z,12.17
2023-01-12T19:16:56.384Z,12.03
2023-01-12T19:19:27.414Z,12.15
2023-01-12T19:22:12.846Z,12.24
2023-01-12T19:24:58.203Z,12.12
2023-01-12T19:28:00.274Z,12.08
2023-01-12T19:30:27.164Z,12.14
2023-01-12T19:32:54.859Z,12.22
2023-01-12T19:35:21.644Z,12.18
2023-01-12T19:37:49.377Z,12.17
2023-01-12T19:40:20.061Z,12.06
2023-01-12T19:43:05.611Z,12.06
2023-01-12T19:45:32.872Z,12.00
2023-01-12T19:47:59.675Z,11.96
2023-01-12T19:50:26.625Z,11.97
2023-01-12T19:52:53.288Z,11.90
2023-01-12T19:55:20.055Z,11.78
2023-01-12T19:57:46.746Z,11.79
2023-01-12T20:00:17.913Z,11.75
2023-01-12T20:02:45.044Z,11.80
2023-01-12T20:05:13.615Z,11.72
2023-01-12T20:07:40.535Z,11.67
2023-01-12T20:10:07.406Z,11.66
2023-01-12T20:12:34.057Z,11.62
2023-01-12T20:15:00.852Z,11.66
2023-01-12T20:17:29.139Z,11.68
2023-01-12T20:19:55.926Z,11.50
2023-01-12T20:22:22.706Z,11.48
2023-01-12T20:24:49.432Z,11.35
2023-01-12T20:27:16.185Z,11.46
2023-01-12T20:29:43.067Z,11.28
2023-01-12T20:32:09.851Z,11.41
2023-01-12T20:34:36.574Z,11.16
2023-01-12T20:37:03.355Z,11.29
2023-01-12T20:39:31.078Z,11.34
2023-01-12T20:41:57.930Z,11.26
2023-01-12T20:44:24.818Z,11.19
2023-01-12T20:46:51.518Z,11.16
2023-01-12T20:49:18.373Z,11.13
2023-01-12T20:51:45.250Z,11.18
2023-01-12T20:54:16.124Z,11.10
2023-01-12T20:56:42.859Z,11.07
2023-01-12T20:59:09.860Z,11.00
2023-01-12T21:01:36.622Z,11.02
2023-01-12T21:04:03.421Z,11.10
2023-01-12T21:06:30.149Z,11.07
2023-01-12T21:08:56.956Z,11.11
2023-01-12T21:11:23.786Z,11.05
2023-01-12T21:13:50.569Z,10.93
2023-01-12T21:16:19.629Z,10.95
2023-01-12T21:18:46.505Z,10.81
2023-01-12T21:21:13.339Z,10.98
2023-01-12T21:23:40.062Z,10.93
2023-01-12T21:26:08.044Z,10.92
2023-01-12T21:28:37.697Z,10.99
2023-01-12T21:31:04.890Z,10.77
2023-01-12T21:33:32.119Z,10.92
2023-01-12T21:35:59.537Z,10.92
2023-01-12T21:38:26.902Z,10.90
2023-01-12T21:40:54.330Z,10.91
2023-01-12T21:43:21.546Z,10.81
2023-01-12T21:45:51.115Z,10.81
2023-01-12T21:48:21.770Z,10.91
2023-01-12T21:50:48.657Z,10.90
2023-01-12T21:53:20.600Z,10.86
2023-01-12T21:55:55.593Z,10.74
2023-01-12T21:58:25.671Z,10.75
2023-01-12T22:00:52.951Z,10.84
2023-01-12T22:03:19.825Z,10.79
2023-01-12T22:05:47.906Z,10.81
2023-01-12T22:08:14.614Z,10.90
2023-01-12T22:10:41.307Z,10.88
2023-01-12T22:13:11.291Z,10.80
2023-01-12T22:15:41.616Z,10.75
2023-01-12T22:18:08.957Z,10.74
2023-01-12T22:20:35.741Z,10.76
2023-01-12T22:23:02.466Z,10.77
2023-01-12T22:25:29.366Z,10.86
2023-01-12T22:27:56.686Z,10.77
2023-01-12T22:30:27.982Z,10.41
2023-01-12T22:32:55.763Z,10.33
2023-01-12T22:35:23.238Z,10.66
2023-01-12T22:37:50.025Z,10.77
2023-01-12T22:40:17.101Z,10.61
2023-01-12T22:43:02.487Z,10.69
2023-01-12T22:45:29.186Z,10.70
2023-01-12T22:47:56.722Z,10.71
2023-01-12T22:50:24.479Z,10.69
2023-01-12T22:52:52.752Z,10.72
2023-01-12T22:55:20.817Z,10.70
2023-01-12T22:57:47.637Z,10.84
2023-01-12T23:00:19.153Z,10.68
2023-01-12T23:03:02.343Z,10.48
2023-01-12T23:05:36.273Z,10.50
2023-01-12T23:08:06.847Z,10.25
2023-01-12T23:10:33.796Z,10.42
2023-01-12T23:13:15.819Z,10.52
2023-01-12T23:15:46.025Z,10.54
2023-01-12T23:18:14.771Z,10.71
2023-01-12T23:20:43.067Z,10.67
2023-01-12T23:23:10.811Z,10.73
2023-01-12T23:25:38.292Z,10.69
2023-01-12T23:28:06.240Z,10.77
2023-01-12T23:30:33.086Z,10.65
2023-01-12T23:33:00.995Z,10.67
2023-01-12T23:35:27.982Z,10.62
2023-01-12T23:37:54.785Z,10.71
2023-01-12T23:40:21.694Z,10.65
2023-01-12T23:42:48.525Z,10.55
2023-01-12T23:45:15.324Z,10.71
2023-01-12T23:47:42.929Z,10.67
2023-01-12T23:50:11.445Z,10.65
2023-01-12T23:52:38.420Z,10.74
2023-01-12T23:55:05.970Z,10.78
2023-01-12T23:57:33.889Z,10.71
